Pescara - LIBP

Metar : METAR LIBP 220020Z AUTO 26009KT 9999 NCD 16/02 Q1012=

Taf : TAF LIBP 212300Z 2200/2224 22012KT 9999 SCT040=

 Scopri come leggere i bollettini codificati...


Storico

LIBP 220020Z AUTO 26009KT 9999 NCD 16/02 Q1012
LIBP 212350Z AUTO 25010KT 9999 NCD 15/03 Q1013
LIBP 212320Z AUTO 24011KT 9999 NCD 15/03 Q1013
LIBP 212250Z AUTO 26013KT 9999 NCD 15/04 Q1014
LIBP 212220Z AUTO 24012KT 9999 NCD 15/03 Q1014
LIBP 212150Z AUTO 23011KT 9999 NCD 15/03 Q1014
LIBP 212120Z AUTO 24013KT 9999 SCT170/// 16/03 Q1014
LIBP 212050Z AUTO 20008KT 9999 BKN180/// 12/03 Q1014
LIBP 212020Z AUTO 20011KT 9999 FEW230/// 14/03 Q1015
LIBP 211950Z AUTO 19008KT 9999 BKN210/// 13/03 Q1015
LIBP 211920Z AUTO 20009KT 9999 SCT220/// 13/03 Q1015
LIBP 211850Z AUTO 22009KT 9999 FEW240/// 15/03 Q1015
LIBP 211820Z AUTO 22005KT 9999 SCT130/// 13/04 Q1015
LIBP 211750Z AUTO 20009KT 9999 BKN120/// 14/04 Q1015
LIBP 211720Z AUTO 22010KT 9999 OVC130/// 15/04 Q1015
LIBP 211650Z AUTO 23014KT 9999 BKN130/// BKN200/// 15/04 Q1015
LIBP 211620Z AUTO 22005KT 9999 BKN200/// 15/04 Q1015
LIBP 211550Z AUTO 23008KT 9999 BKN200/// 15/04 Q1015
LIBP 211520Z AUTO 22008KT 9999 BKN200/// 16/04 Q1015
LIBP 211450Z AUTO 23009KT 9999 SCT200/// BKN240/// 16/04 Q1015
LIBP 211420Z AUTO 23012KT 9999 FEW140/// SCT230/// 17/04 Q1015
LIBP 211350Z AUTO 22013KT 9999 FEW140/// SCT180/// BKN230/// 17/04 Q1015
LIBP 211320Z AUTO 20006KT 9999 BKN079/// BKN150/// BKN180/// 16/05 Q1015
LIBP 211250Z AUTO 19005KT 9999 BKN079/// 16/05 Q1016
LIBP 211220Z AUTO 23009KT 9999 SCT110/// BKN160/// 17/04 Q1016
LIBP 211150Z AUTO 21009KT 9999 BKN120/// 17/05 Q1016
LIBP 211120Z AUTO 18005KT 9999 FEW096/// SCT130/// BKN180/// 17/04 Q1017
LIBP 211050Z AUTO 04006KT 010V070 9999 BKN140/// BKN180/// 17/04 Q1017
LIBP 211020Z AUTO VRB05KT 9999 OVC150/// 12/05 Q1017
LIBP 210950Z AUTO 04008KT 360V070 9999 OVC150/// 10/04 Q1017
LIBP 210920Z AUTO VRB04KT 9999 OVC150/// 09/04 Q1017
LIBP 210850Z AUTO 05004KT 020V110 9999 BKN130/// 07/04 Q1017
LIBP 210820Z AUTO 01003KT 350V050 9999 BKN130/// 07/03 Q1017
LIBP 210750Z AUTO 06004KT 040V100 9999 BKN140/// 07/03 Q1017
LIBP 210720Z AUTO 08005KT 050V120 9999 OVC130/// 07/03 Q1017
LIBP 210650Z AUTO 06004KT 360V120 9999 OVC130/// 06/03 Q1017
LIBP 210620Z AUTO 05007KT 9999 BKN140/// BKN240/// 06/02 Q1017
LIBP 210550Z AUTO 03007KT 9999 SCT210/// BKN250/// 08/02 Q1017
LIBP 210520Z AUTO VRB02KT 9999 BKN170/// BKN210/// 12/02 Q1017
LIBP 210450Z AUTO VRB03KT 9999 FEW180/// 12/03 Q1017
LIBP 210420Z AUTO 04006KT 350V060 9999 NCD 13/03 Q1016
LIBP 210350Z AUTO 25006KT 220V290 9999 NCD 12/03 Q1016
LIBP 210320Z AUTO 02004KT 340V080 9999 SCT190/// 11/04 Q1017
LIBP 210250Z AUTO VRB02KT 9999 SCT220/// 05/03 Q1017
LIBP 210220Z AUTO 04004KT 9999 BKN240/// 05/02 Q1017
LIBP 210150Z AUTO 03005KT 340V050 9999 NCD 04/01 Q1017
LIBP 210120Z AUTO 07006KT 9999 NCD 03/01 Q1018
LIBP 210050Z AUTO 09003KT 020V160 9999 NCD 02/01 Q1018
LIBP 210020Z AUTO VRB02KT 9999 NCD 03/01 Q1018
LIBP 202350Z AUTO VRB03KT 9999 NCD 02/01 Q1018
LIBP 202320Z AUTO VRB02KT 9999 NCD 02/01 Q1019
LIBP 202250Z AUTO 22003KT 110V240 9999 FEW066/// 03/01 Q1019
LIBP 202220Z AUTO VRB01KT 9999 FEW230/// 03/01 Q1020
LIBP 202150Z AUTO VRB01KT 9999 NCD 04/01 Q1020
LIBP 202120Z AUTO VRB02KT 9999 NCD 04/02 Q1020
LIBP 202050Z AUTO VRB02KT 9999 SCT240/// 04/02 Q1020
LIBP 202020Z AUTO VRB02KT 9999 OVC220/// 05/01 Q1020
LIBP 201950Z AUTO VRB01KT 9999 BKN230/// 05/02 Q1020
LIBP 201920Z AUTO VRB02KT 9999 BKN230/// 06/02 Q1021
LIBP 201850Z AUTO VRB02KT 9999 BKN220/// BKN240/// 07/01 Q1021
LIBP 201820Z AUTO VRB02KT 9999 BKN230/// 07/01 Q1021
LIBP 201750Z AUTO 36003KT 330V030 9999 BKN230/// 08/01 Q1021
LIBP 201720Z AUTO VRB02KT 9999 BKN220/// 07/02 Q1021
LIBP 201650Z AUTO 12006KT 9999 BKN240/// 09/02 Q1021
LIBP 201620Z AUTO 12005KT 080V140 9999 BKN240/// 10/01 Q1021
LIBP 201550Z AUTO 07004KT 030V110 9999 BKN240/// 09/01 Q1021
LIBP 201520Z AUTO 09004KT 050V120 9999 SCT240/// 12/01 Q1021
LIBP 201450Z AUTO 07004KT 040V120 9999 BKN240/// 14/00 Q1021
LIBP 201420Z AUTO 24007KT 9999 SCT240/// 14/M00 Q1021
LIBP 201350Z AUTO 25007KT 200V270 9999 FEW250/// 14/M00 Q1021
LIBP 201320Z AUTO 26008KT 220V290 9999 NCD 15/M01 Q1021
LIBP 201250Z AUTO 24008KT 200V270 9999 FEW250/// 15/00 Q1021
LIBP 201220Z AUTO 27004KT 230V310 9999 NCD 14/00 Q1022
LIBP 201150Z AUTO 28005KT 190V340 9999 NCD 15/01 Q1022
LIBP 201120Z AUTO 24010KT 9999 NCD 15/M01 Q1022
LIBP 201050Z AUTO 20011KT 9999 NCD 15/M00 Q1023
LIBP 201020Z AUTO 22011KT 190V250 9999 NCD 14/M00 Q1024
LIBP 200950Z AUTO 22012KT 9999 NCD 14/00 Q1024
LIBP 200920Z AUTO 24006KT 9999 NCD 11/01 Q1024
LIBP 200850Z AUTO 19003KT 160V220 9999 NCD 09/01 Q1024
LIBP 200820Z AUTO VRB02KT 9999 NCD 08/00 Q1024
LIBP 200750Z AUTO VRB02KT 9999 NCD 05/M00 Q1024
LIBP 200720Z AUTO VRB02KT 9999 NCD 01/M01 Q1024
LIBP 200650Z AUTO VRB01KT 9999 NCD 00/M02 Q1024
LIBP 200620Z AUTO VRB02KT 9999 NCD M00/M02 Q1024
LIBP 200550Z AUTO 24005KT 210V290 9999 NCD M01/M03 Q1024
LIBP 200520Z AUTO VRB02KT 9999 NCD M01/M02 Q1024
LIBP 200450Z AUTO 25003KT 9999 NCD M00/M02 Q1023
LIBP 200420Z AUTO 21002KT 9999 NCD M02/M03 Q1023
LIBP 200350Z AUTO VRB02KT 9999 NCD M01/M02 Q1023
LIBP 200320Z AUTO VRB02KT 9999 NCD M00/M02 Q1023
LIBP 200250Z AUTO 23002KT 9999 NCD M01/M02 Q1023
LIBP 200220Z AUTO 22002KT 9999 NCD M00/M02 Q1024
LIBP 200150Z AUTO 29003KT 230V350 9999 NCD M00/M01 Q1024
LIBP 200120Z AUTO VRB02KT 9999 NCD 01/M02 Q1024
LIBP 200050Z AUTO VRB02KT 9999 NCD 00/M02 Q1024
LIBP 200020Z AUTO VRB02KT 9999 NCD 01/M01 Q1023
LIBP 192350Z AUTO VRB02KT 9999 NCD 00/M01 Q1024
LIBP 192320Z AUTO 29003KT 9999 NCD 00/M01 Q1024
LIBP 192250Z AUTO 21003KT 130V260 9999 NCD M00/M02 Q1024
LIBP 192220Z AUTO VRB02KT 9999 NCD 00/M01 Q1024
LIBP 192150Z AUTO VRB01KT 9999 NCD 01/M01 Q1024
LIBP 192120Z AUTO VRB01KT 9999 NCD 01/M01 Q1024
LIBP 192050Z AUTO VRB01KT 9999 NCD 02/M01 Q1024
LIBP 192020Z AUTO VRB02KT 9999 NCD 01/M01 Q1025
LIBP 191950Z AUTO VRB01KT 9999 NCD 03/M00 Q1025
LIBP 191920Z AUTO VRB01KT 9999 NCD 02/M00 Q1025
LIBP 191850Z AUTO VRB01KT 9999 NCD 03/M01 Q1025
LIBP 191820Z AUTO 24003KT 210V270 9999 NCD 05/M01 Q1025
LIBP 191750Z AUTO 21005KT 9999 NCD 04/M01 Q1025
LIBP 191720Z AUTO VRB02KT 9999 NCD 06/01 Q1025
LIBP 191650Z AUTO 01003KT 330V100 9999 NCD 07/01 Q1024
LIBP 191620Z AUTO VRB02KT 9999 NCD 08/01 Q1024
LIBP 191550Z AUTO 04005KT 9999 NCD 10/M01 Q1024
LIBP 191520Z AUTO 08007KT 9999 NCD 11/M01 Q1024
LIBP 191450Z AUTO 07008KT 030V090 9999 NCD 12/M01 Q1024
LIBP 191420Z AUTO 06006KT 9999 NCD 12/M01 Q1024
LIBP 191350Z AUTO 07006KT 9999 NCD 13/M01 Q1024
LIBP 191320Z AUTO 05007KT 9999 NCD 12/03 Q1024
LIBP 191250Z AUTO 05008KT 9999 NCD 11/03 Q1024
LIBP 191220Z AUTO VRB03KT 9999 NCD 14/M03 Q1025
LIBP 191150Z AUTO 22008KT 9999 NCD 13/M03 Q1025
LIBP 191120Z AUTO 23008KT 9999 NCD 13/M03 Q1025
LIBP 191050Z AUTO 23009KT 200V260 9999 NCD 12/M02 Q1026
LIBP 191020Z AUTO 26003KT 200V330 9999 NCD 12/M01 Q1026
LIBP 190950Z AUTO 25003KT 220V290 9999 NCD 10/M01 Q1026
LIBP 190920Z AUTO 25004KT 9999 NCD 07/M00 Q1027
LIBP 190850Z AUTO 23005KT 9999 NCD 05/M02 Q1027
LIBP 190820Z AUTO 23004KT 9999 NCD 03/M02 Q1027
LIBP 190750Z AUTO 21004KT 9999 NCD 01/M01 Q1027
LIBP 190720Z AUTO 22004KT 9999 NCD M01/M03 Q1026
LIBP 190650Z AUTO 22004KT 9999 NCD M03/M04 Q1026
LIBP 190620Z AUTO 22005KT 9999 NCD M03/M04 Q1026
LIBP 190550Z AUTO 21005KT 9999 NCD M02/M04 Q1026
LIBP 190520Z AUTO 22006KT 9999 NCD M02/M03 Q1026
LIBP 190450Z AUTO 24003KT 190V300 9999 NCD M01/M03 Q1026
LIBP 190420Z AUTO 20005KT 9999 NCD M02/M03 Q1026
LIBP 190350Z AUTO 21005KT 9999 NCD M02/M03 Q1026
LIBP 190320Z AUTO 22004KT 9999 NCD M02/M03 Q1026
LIBP 190250Z AUTO 21006KT 9999 NCD M02/M03 Q1026
LIBP 190220Z AUTO 22005KT 9999 NCD M02/M03 Q1026
LIBP 190150Z AUTO 21007KT 9999 NCD M02/M03 Q1026
LIBP 190120Z AUTO 22005KT 9000 NCD M02/M03 Q1026
LIBP 190050Z AUTO 23004KT 9999 NCD M01/M02 Q1026
LIBP 190020Z AUTO 20004KT 9999 NCD M01/M02 Q1026
LIBP 182350Z AUTO 20005KT 9999 NCD M01/M02 Q1026
LIBP 182320Z AUTO 24004KT 9999 NCD M00/M01 Q1026
LIBP 182250Z AUTO 23005KT 9999 NCD 00/M01 Q1026
LIBP 182220Z AUTO 22005KT 9999 NCD 00/M01 Q1026
LIBP 182150Z AUTO 21005KT 9000 NCD M00/M02 Q1026
LIBP 182120Z AUTO 23005KT 9999 NCD 01/M01 Q1026
LIBP 182050Z AUTO 23006KT 9999 BKN120/// 01/M01 Q1026
LIBP 182020Z AUTO 24005KT 9999 FEW120/// 01/M00 Q1026
LIBP 181950Z AUTO 24005KT 9999 NCD 02/M00 Q1025
LIBP 181920Z AUTO 24005KT 9999 FEW120/// 02/00 Q1025
LIBP 181850Z AUTO 22005KT 9999 FEW130/// 02/M01 Q1025
LIBP 181820Z AUTO 22007KT 9999 BKN130/// 04/01 Q1025
LIBP 181720Z AUTO 26002KT 9999 SCT130/// 04/01 Q1025
LIBP 181650Z AUTO VRB02KT 9999 NCD 05/01 Q1024
LIBP 181620Z AUTO 05003KT 9999 NCD 05/00 Q1024
LIBP 181550Z AUTO 06004KT 9999 NCD 06/01 Q1024
LIBP 181520Z AUTO 07007KT 9999 NCD 07/02 Q1024
LIBP 181450Z AUTO 06006KT 9999 NCD 08/02 Q1023
LIBP 181420Z AUTO 06006KT 9999 NCD 09/02 Q1023
LIBP 181350Z AUTO 06005KT 9999 NCD 09/02 Q1023
LIBP 181320Z AUTO 06005KT 360V080 9999 NCD 10/M00 Q1023
LIBP 181250Z AUTO VRB02KT 9999 NCD 10/01 Q1023
LIBP 181220Z AUTO 32003KT 220V020 9999 FEW068/// 09/02 Q1023
LIBP 181150Z AUTO 27003KT 180V320 9999 SCT072/// 09/02 Q1024
LIBP 181120Z AUTO 24004KT 210V280 9999 BKN073/// 08/02 Q1024
LIBP 181050Z AUTO VRB02KT 9999 OVC074/// 07/02 Q1024
LIBP 181020Z AUTO VRB01KT 9999 OVC062/// 06/02 Q1024
LIBP 180950Z AUTO 26003KT 9999 OVC058/// 05/03 Q1025
LIBP 180920Z AUTO VRB01KT 9999 OVC039/// 05/03 Q1024
LIBP 180850Z AUTO VRB02KT 9999 -RA OVC039/// 04/03 Q1024
LIBP 180820Z AUTO 25004KT 9999 -RA OVC044 04/02 Q1024 REDZ
LIBP 180750Z AUTO 25004KT 9999 -RA OVC040/// 03/02 Q1024
LIBP 180720Z AUTO 23004KT 9999 BKN039/// 03/02 Q1023
LIBP 180650Z AUTO 25005KT 9999 OVC039/// 03/02 Q1023

Informazioni elaborate utilizzando, tra l’altro, dati e prodotti del Servizio Meteorologico dell’Aeronautica Militare pubblicati sul sito www.meteoam.it e della National Oceanic and Atmospheric Administration (NOAA)

Ultimi caricamenti...


9H-QAA Boeing 737-8AS Malta Air (Ryanair)

 


EI-NEO Neos Boeing 787-9 Dreamliner

 


EI-NEO Neos Boeing 787-9 Dreamliner

Questo sito non utilizza cookie di profilazione. Il sito utilizza cookie tecnici, di analisi anonima di prima parte e di terze parti per servizi di social network.